Time;durP1;ratioP1;P1;durP2;ratioP2;P2;SDS_P1;SDS_P2;PMS_P1;PMS_P2;Temp;Humidity;BMP_temperature;BMP_pressure;BME280_temperature;BME280_humidity;BME280_pressure;Samples;Min_cycle;Max_cycle;Signal;HPM_P1;HPM_P2
2021/01/29 00:02:20;;;;;;;2.10;2.00;;;2.50;99.90;;;;;;4945704;28;20255;-92
2021/01/29 00:04:46;;;;;;;1.60;1.50;;;2.50;99.90;;;;;;4978847;28;20657;-93
2021/01/29 00:07:12;;;;;;;3.47;2.70;;;2.40;99.90;;;;;;4962761;28;20232;-91
2021/01/29 00:09:38;;;;;;;3.27;2.97;;;2.50;99.90;;;;;;4965553;28;20184;-92
2021/01/29 00:12:06;;;;;;;1.80;1.53;;;2.50;99.90;;;;;;4965408;28;20228;-92
2021/01/29 00:14:31;;;;;;;3.63;1.60;;;2.50;99.90;;;;;;4981767;28;20211;-92
2021/01/29 00:16:57;;;;;;;1.07;1.03;;;2.50;99.90;;;;;;4949532;28;20689;-92
2021/01/29 00:19:23;;;;;;;0.70;0.60;;;2.40;99.90;;;;;;4966882;28;20219;-93
2021/01/29 00:21:49;;;;;;;2.60;2.50;;;2.40;99.90;;;;;;4982563;28;21288;-91
2021/01/29 00:24:15;;;;;;;3.97;3.57;;;2.40;99.90;;;;;;4967281;28;20748;-92
2021/01/29 00:26:41;;;;;;;3.63;3.03;;;2.50;99.90;;;;;;4948373;28;20208;-92
2021/01/29 00:29:07;;;;;;;2.00;1.80;;;2.50;99.90;;;;;;4948394;28;20689;-91
2021/01/29 00:31:32;;;;;;;1.23;1.23;;;2.50;99.90;;;;;;4949494;28;20235;-92
2021/01/29 00:33:58;;;;;;;2.10;1.50;;;2.50;99.90;;;;;;4965797;28;20192;-93
2021/01/29 00:36:24;;;;;;;2.50;2.20;;;2.50;99.90;;;;;;4983356;28;21038;-93
2021/01/29 00:38:50;;;;;;;2.00;1.90;;;2.50;99.90;;;;;;4950374;28;20254;-92
2021/01/29 00:41:21;;;;;;;1.60;1.40;;;2.50;99.90;;;;;;4964496;28;20266;-92
2021/01/29 00:43:47;;;;;;;0.60;0.60;;;2.50;99.90;;;;;;4934546;28;20232;-92
2021/01/29 00:46:12;;;;;;;3.00;2.40;;;2.50;99.90;;;;;;4965718;28;20267;-93
2021/01/29 00:48:38;;;;;;;1.47;1.47;;;2.50;99.90;;;;;;4966288;28;20635;-92
2021/01/29 00:51:04;;;;;;;3.13;1.87;;;2.50;99.90;;;;;;4949108;28;20211;-93
2021/01/29 00:53:30;;;;;;;4.20;0.73;;;2.50;99.90;;;;;;4981357;28;20234;-93
2021/01/29 00:55:56;;;;;;;1.93;1.83;;;2.50;99.90;;;;;;4982261;28;20732;-93
2021/01/29 00:58:21;;;;;;;0.93;0.90;;;2.50;99.90;;;;;;4962001;28;20216;-94
2021/01/29 01:00:47;;;;;;;0.70;0.70;;;2.50;99.90;;;;;;4948861;28;20200;-93
2021/01/29 01:03:13;;;;;;;2.33;1.17;;;2.50;99.90;;;;;;4966228;28;20196;-92
2021/01/29 01:05:42;;;;;;;1.27;1.23;;;2.60;99.90;;;;;;4981538;28;20243;-92
2021/01/29 01:08:09;;;;;;;2.17;2.07;;;2.50;99.90;;;;;;4964883;28;20751;-92
2021/01/29 01:10:34;;;;;;;1.13;1.03;;;2.60;99.90;;;;;;4965029;28;20220;-92
2021/01/29 01:13:00;;;;;;;2.87;2.63;;;2.60;99.90;;;;;;4965898;28;20236;-93
2021/01/29 01:15:26;;;;;;;3.20;1.70;;;2.60;99.90;;;;;;4980547;28;20207;-93
2021/01/29 01:17:55;;;;;;;3.30;1.80;;;2.60;99.90;;;;;;4977176;28;20227;-94
2021/01/29 01:20:23;;;;;;;0.90;0.90;;;2.60;99.90;;;;;;4976565;28;20736;-94
2021/01/29 01:22:49;;;;;;;3.17;2.97;;;2.60;99.90;;;;;;4976871;28;20248;-94
2021/01/29 01:25:16;;;;;;;1.10;0.87;;;2.60;99.90;;;;;;4976024;28;20239;-91
2021/01/29 01:27:42;;;;;;;1.10;1.00;;;2.60;99.90;;;;;;4960574;28;20196;-92
2021/01/29 01:30:12;;;;;;;1.70;1.60;;;2.60;99.90;;;;;;4964808;28;20194;-92
2021/01/29 01:32:39;;;;;;;2.67;0.97;;;2.60;99.90;;;;;;4964174;28;20227;-92
2021/01/29 01:35:05;;;;;;;1.03;1.03;;;2.60;99.90;;;;;;4964928;28;20219;-92
2021/01/29 01:37:31;;;;;;;2.70;1.93;;;2.60;99.90;;;;;;4964705;28;20227;-92
2021/01/29 01:39:57;;;;;;;0.70;0.70;;;2.60;99.90;;;;;;4966139;28;20184;-92
2021/01/29 01:42:23;;;;;;;0.67;0.67;;;2.60;99.90;;;;;;4965702;28;21116;-92
2021/01/29 01:44:49;;;;;;;1.10;1.03;;;2.60;99.90;;;;;;4964594;28;20236;-94
2021/01/29 01:47:45;;;;;;;4.73;1.80;;;2.60;99.90;;;;;;4948528;28;20255;-91
2021/01/29 01:50:38;;;;;;;4.70;1.30;;;2.60;99.90;;;;;;4964257;28;20229;-92
2021/01/29 01:53:10;;;;;;;1.37;1.33;;;2.60;99.90;;;;;;4965028;28;20235;-91
2021/01/29 01:55:38;;;;;;;2.57;2.37;;;2.60;99.90;;;;;;4963881;28;20367;-94
2021/01/29 01:58:07;;;;;;;2.53;2.10;;;2.60;99.90;;;;;;4962595;28;20673;-93
2021/01/29 02:00:34;;;;;;;1.03;0.77;;;2.60;99.90;;;;;;4962108;28;20221;-92
2021/01/29 02:03:13;;;;;;;1.57;1.53;;;2.60;99.90;;;;;;4942480;29;20220;-92
2021/01/29 02:05:40;;;;;;;1.83;1.73;;;2.70;99.90;;;;;;4942370;29;21389;-92
2021/01/29 02:08:09;;;;;;;1.13;1.07;;;2.60;99.90;;;;;;4941672;28;20784;-91
2021/01/29 02:10:35;;;;;;;3.40;3.17;;;2.70;99.90;;;;;;4942614;28;20227;-92
2021/01/29 02:13:03;;;;;;;1.07;0.97;;;2.70;99.90;;;;;;4941463;28;20610;-93
2021/01/29 02:15:41;;;;;;;1.77;1.67;;;2.70;99.90;;;;;;4927556;29;20197;-93
2021/01/29 02:18:28;;;;;;;0.80;0.80;;;2.70;99.90;;;;;;4942640;29;20221;-93
2021/01/29 02:21:15;;;;;;;3.10;2.20;;;2.70;99.90;;;;;;4942286;29;20221;-91
2021/01/29 02:24:18;;;;;;;0.87;0.77;;;2.70;99.90;;;;;;4942447;28;20217;-92
2021/01/29 02:26:52;;;;;;;1.67;1.57;;;2.70;99.90;;;;;;4941541;28;20690;-93
2021/01/29 02:29:48;;;;;;;0.37;0.37;;;2.70;99.90;;;;;;4941512;28;20251;-92
2021/01/29 02:32:45;;;;;;;0.50;0.50;;;2.80;99.90;;;;;;4942601;28;20767;-92
2021/01/29 02:35:16;;;;;;;1.63;1.53;;;2.80;99.90;;;;;;4943433;28;20230;-92
2021/01/29 02:38:19;;;;;;;0.90;0.90;;;2.70;99.90;;;;;;4938436;28;20221;-92
2021/01/29 02:40:58;;;;;;;4.70;1.20;;;2.70;99.90;;;;;;4937438;29;20221;-94
2021/01/29 02:43:38;;;;;;;2.37;2.17;;;2.80;99.90;;;;;;4954157;28;20221;-94
2021/01/29 02:46:49;;;;;;;1.67;1.57;;;2.80;99.90;;;;;;4940182;28;20231;-94
2021/01/29 02:49:40;;;;;;;1.60;1.60;;;2.80;99.90;;;;;;4937356;28;20260;-92
2021/01/29 02:52:13;;;;;;;1.57;1.47;;;2.80;99.90;;;;;;4943875;28;20715;-93
2021/01/29 02:54:52;;;;;;;2.13;1.47;;;2.80;99.90;;;;;;4962700;28;20186;-92
2021/01/29 02:57:39;;;;;;;2.00;1.90;;;2.80;99.90;;;;;;4943798;29;20217;-93
2021/01/29 03:00:23;;;;;;;4.23;2.13;;;2.80;99.90;;;;;;4970821;28;20259;-93
2021/01/29 03:02:53;;;;;;;0.67;0.67;;;2.80;99.90;;;;;;4966399;28;20343;-93
2021/01/29 03:05:47;;;;;;;1.17;1.17;;;2.80;99.90;;;;;;4965730;28;20235;-92
2021/01/29 03:08:25;;;;;;;1.10;1.10;;;2.80;99.90;;;;;;4965772;28;20216;-95
2021/01/29 03:11:12;;;;;;;0.63;0.43;;;2.90;99.90;;;;;;4967137;28;20215;-95
2021/01/29 03:13:52;;;;;;;1.87;1.77;;;2.80;99.90;;;;;;4985508;28;20660;-94
2021/01/29 03:16:31;;;;;;;1.77;1.70;;;2.90;99.90;;;;;;4968530;28;20623;-93
2021/01/29 03:19:10;;;;;;;1.63;1.50;;;2.90;99.90;;;;;;4985269;28;20282;-94
2021/01/29 03:21:43;;;;;;;5.50;2.87;;;2.90;99.90;;;;;;4984161;28;20191;-91
2021/01/29 03:24:17;;;;;;;2.60;2.20;;;2.90;99.90;;;;;;4966893;28;20239;-92
2021/01/29 03:26:58;;;;;;;0.83;0.83;;;2.90;99.90;;;;;;4964762;28;20331;-94
2021/01/29 03:29:27;;;;;;;3.73;2.40;;;2.90;99.90;;;;;;4979976;28;20263;-92
2021/01/29 03:31:58;;;;;;;3.37;3.10;;;2.90;99.90;;;;;;4962313;28;20228;-93
2021/01/29 03:34:32;;;;;;;2.10;2.00;;;2.90;99.90;;;;;;4961340;28;20243;-92
2021/01/29 03:37:14;;;;;;;1.03;1.03;;;2.90;99.90;;;;;;4964032;28;20777;-92
2021/01/29 03:39:40;;;;;;;2.43;2.17;;;2.90;99.90;;;;;;4966864;28;20316;-92
2021/01/29 03:42:24;;;;;;;7.47;4.13;;;2.90;99.90;;;;;;4966656;28;20302;-92
2021/01/29 03:45:01;;;;;;;1.67;1.57;;;2.90;99.90;;;;;;4983210;28;20215;-93
2021/01/29 03:48:19;;;;;;;1.00;1.00;;;2.90;99.90;;;;;;4966476;28;20207;-93
2021/01/29 03:50:51;;;;;;;2.47;2.33;;;2.80;99.90;;;;;;4929530;28;20232;-93
2021/01/29 03:53:36;;;;;;;1.00;1.00;;;2.80;99.90;;;;;;4983062;28;20250;-93
2021/01/29 03:56:19;;;;;;;2.67;2.47;;;2.80;99.90;;;;;;4967073;28;20216;-92
2021/01/29 03:58:57;;;;;;;16.10;4.20;;;2.80;99.90;;;;;;4964592;28;20303;-92
2021/01/29 04:01:31;;;;;;;1.90;1.80;;;2.80;99.90;;;;;;4981873;28;20305;-94
2021/01/29 04:04:33;;;;;;;1.90;1.53;;;2.80;99.90;;;;;;4982222;28;20706;-94
2021/01/29 04:07:24;;;;;;;5.30;4.00;;;2.80;99.90;;;;;;4966491;28;20172;-93
2021/01/29 04:10:01;;;;;;;4.07;3.03;;;2.80;99.90;;;;;;4965863;28;20207;-92
2021/01/29 04:12:37;;;;;;;6.40;5.93;;;2.80;99.90;;;;;;4967811;28;20338;-94
2021/01/29 04:15:32;;;;;;;2.03;1.93;;;2.80;99.90;;;;;;4965487;28;20219;-93
2021/01/29 04:18:20;;;;;;;3.00;2.53;;;2.80;99.90;;;;;;4961566;28;20216;-94
2021/01/29 04:21:13;;;;;;;2.67;2.47;;;2.80;99.90;;;;;;4966634;28;20220;-92
2021/01/29 04:24:06;;;;;;;4.03;1.30;;;2.80;99.90;;;;;;4966574;28;20224;-93
2021/01/29 04:26:39;;;;;;;2.93;1.63;;;2.80;99.90;;;;;;4983352;28;20228;-94
2021/01/29 04:29:18;;;;;;;3.03;2.80;;;2.80;99.90;;;;;;4983263;28;20215;-93
2021/01/29 04:31:46;;;;;;;3.50;1.43;;;2.80;99.90;;;;;;4965892;28;20274;-92
2021/01/29 04:34:19;;;;;;;4.60;3.50;;;2.80;99.90;;;;;;4983688;28;20294;-94
2021/01/29 04:36:48;;;;;;;1.93;1.30;;;2.80;99.90;;;;;;4983578;28;20204;-93
2021/01/29 04:39:21;;;;;;;1.70;1.27;;;2.80;99.90;;;;;;4966991;28;20220;-93
2021/01/29 04:41:52;;;;;;;7.87;4.67;;;2.80;99.90;;;;;;4965251;28;20223;-92
2021/01/29 04:44:45;;;;;;;2.60;2.43;;;2.80;99.90;;;;;;4965789;28;20212;-94
2021/01/29 04:47:30;;;;;;;3.97;1.60;;;2.70;99.90;;;;;;4982635;28;20223;-93
2021/01/29 04:50:17;;;;;;;1.20;1.13;;;2.80;99.90;;;;;;4965561;28;20216;-94
2021/01/29 04:53:17;;;;;;;2.53;2.43;;;2.70;99.90;;;;;;4982789;28;20270;-92
2021/01/29 04:56:12;;;;;;;2.57;2.23;;;2.70;99.90;;;;;;4983312;28;20224;-92
2021/01/29 04:58:59;;;;;;;3.20;2.47;;;2.70;99.90;;;;;;4964386;28;20222;-93
2021/01/29 05:01:56;;;;;;;0.30;0.30;;;2.70;99.90;;;;;;4939715;28;20247;-93
2021/01/29 05:04:43;;;;;;;6.83;2.57;;;2.70;99.90;;;;;;4982112;28;21296;-93
2021/01/29 05:07:31;;;;;;;4.60;3.83;;;2.70;99.90;;;;;;4965333;28;20231;-93
2021/01/29 05:10:02;;;;;;;3.67;2.17;;;2.70;99.90;;;;;;4982393;28;20275;-93
2021/01/29 05:12:47;;;;;;;3.80;3.47;;;2.70;99.90;;;;;;4966359;28;20286;-93
2021/01/29 05:15:51;;;;;;;6.90;3.77;;;2.70;99.90;;;;;;4981764;28;20224;-95
2021/01/29 05:18:32;;;;;;;2.10;2.00;;;2.70;99.90;;;;;;4981213;28;20255;-94
2021/01/29 05:21:33;;;;;;;2.67;2.43;;;2.70;99.90;;;;;;4965220;28;20215;-95
2021/01/29 05:24:29;;;;;;;1.50;0.97;;;2.60;99.90;;;;;;4936103;28;20307;-93
2021/01/29 05:27:37;;;;;;;2.37;1.53;;;2.70;99.90;;;;;;4980986;28;20211;-94
2021/01/29 05:30:30;;;;;;;1.70;1.50;;;2.60;99.90;;;;;;4912080;28;20727;-95
2021/01/29 05:33:41;;;;;;;2.37;2.20;;;2.70;99.90;;;;;;4968439;28;20232;-92
2021/01/29 05:36:09;;;;;;;2.00;1.53;;;2.60;99.90;;;;;;4937888;28;20219;-93
2021/01/29 05:38:59;;;;;;;3.83;1.13;;;2.60;99.90;;;;;;4967211;28;20315;-95
2021/01/29 05:41:49;;;;;;;2.20;1.70;;;2.60;99.90;;;;;;4974389;28;20590;-92
2021/01/29 05:44:23;;;;;;;4.97;1.20;;;2.60;99.90;;;;;;4983404;28;20212;-93
2021/01/29 05:46:49;;;;;;;5.63;2.77;;;2.60;99.90;;;;;;4978490;28;20219;-94
2021/01/29 05:49:26;;;;;;;1.50;1.40;;;2.60;99.90;;;;;;4981106;28;20238;-95
2021/01/29 05:51:57;;;;;;;1.33;1.23;;;2.60;99.90;;;;;;4983163;28;20191;-94
2021/01/29 05:54:41;;;;;;;1.37;1.20;;;2.60;99.90;;;;;;4985810;28;20188;-95
2021/01/29 05:57:31;;;;;;;2.87;2.60;;;2.60;99.90;;;;;;4968106;28;20386;-93
2021/01/29 05:59:59;;;;;;;0.93;0.83;;;2.60;99.90;;;;;;4968846;28;20240;-93
2021/01/29 06:02:30;;;;;;;3.63;0.70;;;2.60;99.90;;;;;;4987600;28;20236;-93
2021/01/29 06:05:35;;;;;;;1.23;1.20;;;2.60;99.90;;;;;;4986228;28;20262;-94
2021/01/29 06:08:26;;;;;;;0.83;0.83;;;2.60;99.90;;;;;;4945975;28;20216;-93
2021/01/29 06:11:23;;;;;;;1.73;1.63;;;2.60;99.90;;;;;;4967996;28;20278;-93
2021/01/29 06:14:19;;;;;;;1.47;1.47;;;2.60;99.90;;;;;;4966570;28;20216;-94
2021/01/29 06:17:06;;;;;;;1.73;1.63;;;2.60;99.90;;;;;;4986742;28;20227;-92
2021/01/29 06:20:02;;;;;;;2.80;2.13;;;2.50;99.90;;;;;;4967169;28;20286;-93
2021/01/29 06:23:05;;;;;;;2.43;1.83;;;2.50;99.90;;;;;;4964707;28;20242;-92
2021/01/29 06:25:49;;;;;;;2.33;2.13;;;2.50;99.90;;;;;;4969995;28;20313;-92
2021/01/29 06:28:46;;;;;;;1.90;1.40;;;2.40;99.90;;;;;;4969885;28;20231;-92
2021/01/29 06:31:12;;;;;;;2.27;2.17;;;2.40;99.90;;;;;;4967962;28;20243;-92
2021/01/29 06:34:02;;;;;;;0.80;0.80;;;2.40;99.90;;;;;;4969708;28;20346;-95
2021/01/29 06:36:49;;;;;;;2.73;0.97;;;2.40;99.90;;;;;;4992708;28;20686;-92
2021/01/29 06:39:27;;;;;;;1.67;1.57;;;2.40;99.90;;;;;;4989530;28;20608;-93
2021/01/29 06:42:01;;;;;;;2.73;2.63;;;2.40;99.90;;;;;;4987840;28;20853;-92
2021/01/29 06:44:30;;;;;;;1.00;0.80;;;2.40;99.90;;;;;;4967979;28;20230;-89
2021/01/29 06:47:15;;;;;;;1.03;0.63;;;2.40;99.90;;;;;;4968291;28;20216;-92
2021/01/29 06:49:49;;;;;;;0.80;0.80;;;2.40;99.90;;;;;;4985901;28;20224;-90
2021/01/29 06:53:01;;;;;;;2.70;1.43;;;2.30;99.90;;;;;;4983628;28;20772;-91
2021/01/29 06:55:59;;;;;;;0.30;0.30;;;2.30;99.90;;;;;;4969285;28;20311;-92
2021/01/29 06:59:06;;;;;;;3.47;3.10;;;2.30;99.90;;;;;;4983151;28;20220;-92
2021/01/29 07:01:47;;;;;;;3.27;3.07;;;2.30;99.90;;;;;;4970700;28;20231;-92
2021/01/29 07:04:51;;;;;;;1.73;1.63;;;2.30;99.90;;;;;;4968411;28;20251;-90
2021/01/29 07:07:33;;;;;;;8.37;7.87;;;2.30;99.90;;;;;;4967378;28;20252;-92
2021/01/29 07:10:21;;;;;;;0.67;0.60;;;2.30;99.90;;;;;;4984957;28;20180;-90
2021/01/29 07:12:49;;;;;;;1.73;1.27;;;2.30;99.90;;;;;;4986410;28;20203;-88
2021/01/29 07:15:35;;;;;;;2.23;1.60;;;2.30;99.90;;;;;;4986338;28;20200;-92
2021/01/29 07:18:39;;;;;;;1.07;1.03;;;2.30;99.90;;;;;;4984020;28;20219;-91
2021/01/29 07:21:22;;;;;;;1.17;1.17;;;2.40;99.90;;;;;;4984119;28;20588;-94
2021/01/29 07:24:12;;;;;;;1.47;1.37;;;2.40;99.90;;;;;;4982886;28;20299;-90
2021/01/29 07:27:00;;;;;;;1.63;1.53;;;2.40;99.90;;;;;;4984452;28;20820;-90
2021/01/29 07:29:42;;;;;;;0.80;0.80;;;2.40;99.90;;;;;;4965810;28;20659;-91
2021/01/29 07:32:56;;;;;;;0.67;0.50;;;2.40;99.90;;;;;;4964943;28;20230;-89
2021/01/29 07:35:54;;;;;;;3.03;2.73;;;2.40;99.90;;;;;;4948568;28;20306;-91
2021/01/29 07:38:30;;;;;;;3.17;2.87;;;2.40;99.90;;;;;;4954678;28;20220;-91
2021/01/29 07:41:28;;;;;;;3.30;1.87;;;2.40;99.90;;;;;;4983621;28;20230;-89
2021/01/29 07:44:21;;;;;;;0.90;0.90;;;2.40;99.90;;;;;;4963040;28;20232;-89
2021/01/29 07:47:10;;;;;;;0.27;0.27;;;2.40;99.90;;;;;;4982284;28;20219;-89
2021/01/29 07:49:51;;;;;;;0.87;0.87;;;2.40;99.90;;;;;;4982899;28;20282;-90
2021/01/29 07:52:35;;;;;;;0.43;0.43;;;2.40;99.90;;;;;;4982775;28;20238;-90
2021/01/29 07:55:18;;;;;;;1.53;1.43;;;2.40;99.90;;;;;;4964819;28;20673;-90
2021/01/29 07:57:53;;;;;;;0.70;0.57;;;2.40;99.90;;;;;;4979665;28;20314;-91
2021/01/29 08:00:40;;;;;;;0.70;0.70;;;2.40;99.90;;;;;;4967243;28;20227;-89
2021/01/29 08:03:20;;;;;;;1.03;1.00;;;2.40;99.90;;;;;;4983187;28;20216;-89
2021/01/29 08:06:01;;;;;;;0.77;0.50;;;2.50;99.90;;;;;;4965655;28;20224;-90
2021/01/29 08:08:46;;;;;;;1.00;1.00;;;2.40;99.90;;;;;;4965339;28;20282;-90
2021/01/29 08:11:14;;;;;;;1.03;1.03;;;2.50;99.90;;;;;;4965523;28;20226;-89
2021/01/29 08:13:59;;;;;;;0.97;0.97;;;2.40;99.90;;;;;;4949685;28;20232;-91
2021/01/29 08:16:43;;;;;;;2.47;1.80;;;2.50;99.90;;;;;;4966066;28;20216;-90
2021/01/29 08:19:15;;;;;;;2.20;1.47;;;2.40;99.90;;;;;;4982863;28;20700;-89
2021/01/29 08:22:13;;;;;;;0.83;0.83;;;2.50;99.90;;;;;;4964729;28;20645;-90
2021/01/29 08:25:03;;;;;;;1.17;1.17;;;2.50;99.90;;;;;;4966802;28;20282;-90
2021/01/29 08:28:06;;;;;;;1.70;0.83;;;2.50;99.90;;;;;;4981210;28;20689;-88
2021/01/29 08:30:51;;;;;;;0.40;0.40;;;2.50;99.90;;;;;;4981640;28;20220;-89
2021/01/29 08:33:45;;;;;;;0.43;0.43;;;2.50;99.90;;;;;;4964904;28;20314;-89
2021/01/29 08:36:29;;;;;;;1.13;1.13;;;2.50;99.90;;;;;;4981962;28;20239;-89
2021/01/29 08:39:13;;;;;;;1.40;0.87;;;2.50;99.90;;;;;;4965579;28;20228;-90
2021/01/29 08:41:57;;;;;;;1.27;0.80;;;2.50;99.90;;;;;;4981548;28;20224;-89
2021/01/29 08:44:54;;;;;;;0.60;0.60;;;2.50;99.90;;;;;;4981853;28;20220;-89
2021/01/29 08:47:51;;;;;;;0.90;0.90;;;2.60;99.90;;;;;;4981048;28;20314;-89
2021/01/29 08:50:38;;;;;;;4.47;1.70;;;2.60;99.90;;;;;;4965934;28;20274;-89
2021/01/29 08:53:45;;;;;;;0.30;0.30;;;2.60;99.90;;;;;;4965715;28;20290;-90
2021/01/29 08:56:45;;;;;;;1.93;1.60;;;2.60;99.90;;;;;;4932698;28;20236;-89
2021/01/29 08:59:17;;;;;;;1.13;1.03;;;2.60;99.90;;;;;;4977897;28;20248;-90
2021/01/29 09:01:43;;;;;;;2.47;1.47;;;2.60;99.90;;;;;;4980232;28;20228;-89
2021/01/29 09:04:45;;;;;;;1.10;1.03;;;2.60;99.90;;;;;;4981680;28;20232;-95
2021/01/29 09:07:26;;;;;;;1.70;1.03;;;2.60;99.90;;;;;;4965479;28;20223;-95
2021/01/29 09:09:54;;;;;;;1.00;1.00;;;2.60;99.90;;;;;;4980369;28;21749;-91
2021/01/29 09:12:25;;;;;;;0.70;0.70;;;2.60;99.90;;;;;;4965807;28;20212;-93
2021/01/29 09:14:54;;;;;;;2.73;0.77;;;2.60;99.90;;;;;;4965012;28;20278;-94
2021/01/29 09:17:35;;;;;;;2.37;2.17;;;2.60;99.90;;;;;;4982050;28;20211;-94
2021/01/29 09:20:07;;;;;;;4.20;1.23;;;2.60;99.90;;;;;;4982630;28;20219;-94
2021/01/29 09:22:43;;;;;;;1.27;0.70;;;2.70;99.90;;;;;;4965255;28;20224;-93
2021/01/29 09:25:45;;;;;;;1.63;1.27;;;2.70;99.90;;;;;;4982129;28;20394;-94
2021/01/29 09:28:20;;;;;;;2.77;0.97;;;2.70;99.90;;;;;;4946947;28;20266;-93
2021/01/29 09:31:20;;;;;;;1.50;0.50;;;2.70;99.90;;;;;;4963741;28;20691;-94
2021/01/29 09:34:01;;;;;;;1.40;1.40;;;2.80;99.90;;;;;;4964719;28;20328;-93
2021/01/29 09:36:33;;;;;;;0.97;0.63;;;2.70;99.90;;;;;;4965523;28;20188;-92
2021/01/29 09:39:12;;;;;;;1.20;1.20;;;2.70;99.90;;;;;;4963640;28;20250;-92
2021/01/29 09:41:47;;;;;;;1.17;1.07;;;2.80;99.90;;;;;;4982119;28;20219;-92
2021/01/29 09:44:33;;;;;;;1.80;1.10;;;2.80;99.90;;;;;;4964795;28;20812;-90
2021/01/29 09:47:03;;;;;;;2.20;1.73;;;2.80;99.90;;;;;;4964135;28;20218;-90
2021/01/29 09:49:32;;;;;;;1.37;1.27;;;2.80;99.90;;;;;;4965044;28;20239;-94
2021/01/29 09:52:37;;;;;;;1.17;1.07;;;2.80;99.90;;;;;;4981347;28;20299;-93
2021/01/29 09:55:28;;;;;;;1.63;1.53;;;2.80;99.90;;;;;;4958589;28;20219;-91
2021/01/29 09:58:11;;;;;;;0.63;0.63;;;2.90;99.90;;;;;;4978760;28;20187;-92
2021/01/29 10:00:39;;;;;;;1.50;1.30;;;2.90;99.90;;;;;;4982618;28;20278;-91
2021/01/29 10:03:33;;;;;;;0.87;0.83;;;2.90;99.90;;;;;;4980709;28;20298;-92
2021/01/29 10:06:33;;;;;;;1.40;1.40;;;2.90;99.90;;;;;;4963183;28;20212;-88
2021/01/29 10:09:09;;;;;;;2.27;2.17;;;3.00;99.90;;;;;;4929275;28;20231;-88
2021/01/29 10:11:47;;;;;;;0.50;0.50;;;3.00;99.90;;;;;;4977115;28;20290;-90
2021/01/29 10:14:28;;;;;;;1.40;1.40;;;3.10;99.90;;;;;;4962649;28;20220;-90
2021/01/29 10:17:10;;;;;;;1.37;1.27;;;3.10;99.90;;;;;;4962461;28;20212;-92
2021/01/29 10:20:18;;;;;;;1.53;1.43;;;3.20;99.90;;;;;;4980705;28;20351;-91
2021/01/29 10:23:14;;;;;;;0.70;0.70;;;3.20;99.90;;;;;;4962223;28;20231;-87
2021/01/29 10:26:02;;;;;;;1.13;1.03;;;3.20;99.90;;;;;;4963085;28;20306;-88
2021/01/29 10:28:46;;;;;;;1.07;1.07;;;3.30;99.90;;;;;;4980080;28;20253;-88
2021/01/29 10:31:13;;;;;;;1.30;1.20;;;3.30;99.90;;;;;;4962488;28;20263;-88
2021/01/29 10:33:47;;;;;;;1.97;1.77;;;3.30;99.90;;;;;;4964902;28;20223;-88
2021/01/29 10:36:33;;;;;;;0.80;0.80;;;3.40;99.90;;;;;;4980794;28;20255;-88
2021/01/29 10:39:06;;;;;;;0.50;0.50;;;3.40;99.90;;;;;;4978515;28;20357;-88
2021/01/29 10:41:51;;;;;;;1.03;0.50;;;3.50;99.90;;;;;;4980692;28;20219;-88
2021/01/29 10:44:44;;;;;;;1.07;1.07;;;3.60;99.90;;;;;;4963274;28;20224;-88
2021/01/29 10:47:34;;;;;;;1.50;1.33;;;3.60;99.90;;;;;;4959971;28;20212;-88
2021/01/29 10:50:12;;;;;;;1.57;1.47;;;3.70;99.90;;;;;;4978817;28;20223;-88
2021/01/29 10:52:57;;;;;;;0.87;0.87;;;3.80;99.90;;;;;;4979073;28;20306;-88
2021/01/29 10:55:26;;;;;;;1.93;1.60;;;3.80;99.90;;;;;;4979053;28;20228;-88
2021/01/29 10:58:17;;;;;;;1.00;1.00;;;4.10;99.90;;;;;;4977138;28;20200;-88
2021/01/29 11:00:50;;;;;;;2.60;2.10;;;4.30;99.90;;;;;;4958851;28;20827;-88
2021/01/29 11:03:21;;;;;;;1.17;0.70;;;4.50;99.90;;;;;;4961038;28;20201;-91
2021/01/29 11:05:49;;;;;;;3.60;1.90;;;4.90;99.90;;;;;;4976484;28;20212;-93
2021/01/29 11:08:30;;;;;;;0.37;0.37;;;5.20;99.90;;;;;;4960322;28;20228;-92
2021/01/29 11:11:08;;;;;;;1.17;0.97;;;5.70;99.90;;;;;;4962009;28;20275;-93
2021/01/29 11:14:00;;;;;;;10.30;0.77;;;6.10;99.90;;;;;;4961852;28;20233;-92
2021/01/29 11:16:38;;;;;;;1.50;1.50;;;6.30;99.90;;;;;;4964914;28;20583;-88
2021/01/29 11:19:10;;;;;;;2.30;2.10;;;6.50;99.90;;;;;;4980161;28;20279;-88
2021/01/29 11:21:38;;;;;;;2.53;1.93;;;6.50;99.90;;;;;;4980791;28;20200;-89
2021/01/29 11:24:12;;;;;;;3.00;1.03;;;6.60;99.90;;;;;;4963005;28;20231;-89
2021/01/29 11:27:04;;;;;;;1.37;0.97;;;6.60;99.90;;;;;;4964896;28;20216;-88
2021/01/29 11:29:49;;;;;;;3.53;2.87;;;6.60;99.90;;;;;;4963464;28;20212;-90
2021/01/29 11:32:34;;;;;;;12.17;2.67;;;6.70;99.90;;;;;;4979211;28;20227;-90
2021/01/29 11:35:24;;;;;;;3.80;1.83;;;6.70;99.90;;;;;;4963689;28;20220;-90
2021/01/29 11:37:55;;;;;;;10.77;4.50;;;6.70;99.90;;;;;;4963127;28;20678;-89
2021/01/29 11:40:40;;;;;;;7.67;3.60;;;6.70;99.90;;;;;;4962402;28;20701;-86
2021/01/29 11:43:17;;;;;;;2.73;2.20;;;6.80;99.90;;;;;;4961856;28;20315;-85
2021/01/29 11:45:53;;;;;;;4.57;3.00;;;6.90;99.90;;;;;;4960851;28;20588;-86
2021/01/29 11:48:33;;;;;;;13.97;1.27;;;6.90;99.90;;;;;;4962579;28;20192;-86
2021/01/29 11:51:05;;;;;;;6.93;1.87;;;6.90;99.90;;;;;;4962007;28;20216;-86
2021/01/29 11:53:48;;;;;;;2.97;2.73;;;6.90;99.90;;;;;;4960523;28;20244;-84
2021/01/29 11:56:23;;;;;;;5.90;1.37;;;7.00;99.90;;;;;;4960478;28;20240;-85
2021/01/29 11:59:03;;;;;;;7.83;1.77;;;7.00;99.90;;;;;;4958844;28;20220;-85
2021/01/29 12:01:38;;;;;;;0.83;0.80;;;7.00;99.90;;;;;;4960791;28;20939;-84
2021/01/29 12:04:31;;;;;;;2.30;1.83;;;7.00;99.90;;;;;;4960387;28;20220;-85
2021/01/29 12:07:15;;;;;;;6.33;1.83;;;7.00;99.90;;;;;;4958353;28;20329;-84
2021/01/29 12:10:00;;;;;;;1.83;1.73;;;7.10;99.90;;;;;;4962418;28;20196;-84
2021/01/29 12:12:57;;;;;;;0.63;0.40;;;7.10;99.90;;;;;;4959734;28;20232;-83
2021/01/29 12:15:57;;;;;;;2.00;0.93;;;7.10;99.90;;;;;;4974261;28;20224;-83
2021/01/29 12:18:26;;;;;;;7.03;0.93;;;7.10;99.90;;;;;;4923028;28;20216;-84
2021/01/29 12:21:09;;;;;;;3.17;2.83;;;7.10;99.90;;;;;;4974723;28;20328;-84
2021/01/29 12:23:48;;;;;;;20.13;3.13;;;7.10;99.90;;;;;;4957535;28;20345;-84
2021/01/29 12:26:32;;;;;;;7.20;1.87;;;7.10;99.90;;;;;;4959372;28;20216;-83
2021/01/29 12:29:18;;;;;;;0.27;0.27;;;7.10;99.90;;;;;;4958386;28;20247;-84
2021/01/29 12:32:02;;;;;;;1.83;1.27;;;7.10;99.90;;;;;;4957567;28;20779;-84
2021/01/29 12:34:32;;;;;;;14.63;1.90;;;7.10;99.90;;;;;;4975148;28;20307;-83
2021/01/29 12:37:05;;;;;;;5.67;3.03;;;7.20;99.90;;;;;;4959491;28;20189;-83
2021/01/29 12:39:46;;;;;;;3.83;1.43;;;7.20;99.90;;;;;;4960499;28;20189;-83
2021/01/29 12:42:24;;;;;;;4.57;2.07;;;7.10;99.90;;;;;;4974386;28;20524;-83
2021/01/29 12:45:05;;;;;;;7.67;1.47;;;7.20;99.90;;;;;;4959225;28;20223;-83
2021/01/29 12:48:07;;;;;;;2.30;1.03;;;7.20;99.90;;;;;;4959369;28;20267;-83
2021/01/29 12:51:07;;;;;;;2.90;0.77;;;7.10;99.90;;;;;;4900230;29;20696;-85
2021/01/29 12:53:39;;;;;;;7.57;2.03;;;7.10;99.90;;;;;;4958152;28;20255;-83
2021/01/29 12:56:20;;;;;;;2.00;1.57;;;7.10;99.90;;;;;;4974403;28;20290;-83
2021/01/29 12:58:53;;;;;;;4.87;1.43;;;7.10;99.90;;;;;;4954516;28;20291;-84
2021/01/29 13:01:49;;;;;;;5.73;1.33;;;7.10;99.90;;;;;;4958163;28;20575;-83
2021/01/29 13:04:48;;;;;;;3.03;2.77;;;7.10;99.90;;;;;;4959313;28;20227;-82
2021/01/29 13:07:26;;;;;;;1.23;0.67;;;7.20;99.90;;;;;;4975060;28;20367;-83
2021/01/29 13:10:03;;;;;;;23.07;2.23;;;7.20;99.90;;;;;;4960199;28;20208;-84
2021/01/29 13:12:47;;;;;;;5.23;1.20;;;7.30;99.90;;;;;;4961604;28;20216;-84
2021/01/29 13:15:16;;;;;;;9.57;1.53;;;7.30;99.90;;;;;;4959137;28;20227;-83
2021/01/29 13:17:43;;;;;;;4.07;0.73;;;7.30;99.90;;;;;;4959163;28;20224;-84
2021/01/29 13:20:29;;;;;;;6.47;1.37;;;7.30;99.90;;;;;;4959049;28;20224;-83
2021/01/29 13:23:16;;;;;;;21.87;1.83;;;7.30;99.90;;;;;;4958329;28;20768;-84
2021/01/29 13:25:55;;;;;;;2.93;2.10;;;7.30;99.90;;;;;;4957831;28;20275;-84
2021/01/29 13:28:21;;;;;;;8.00;2.10;;;7.40;99.90;;;;;;4959828;28;20287;-83
2021/01/29 13:30:47;;;;;;;1.40;0.73;;;7.40;99.90;;;;;;4959055;28;20785;-83
2021/01/29 13:33:16;;;;;;;12.00;2.33;;;7.40;99.90;;;;;;4959488;28;20698;-85
2021/01/29 13:35:43;;;;;;;5.40;1.17;;;7.40;99.90;;;;;;4957906;28;21092;-83
2021/01/29 13:38:31;;;;;;;11.53;4.80;;;7.40;99.90;;;;;;4958636;28;20221;-85
2021/01/29 13:41:24;;;;;;;2.90;1.43;;;7.40;99.90;;;;;;4957903;28;20299;-84
2021/01/29 13:43:50;;;;;;;5.73;2.73;;;7.50;99.90;;;;;;4959000;28;20275;-84
2021/01/29 13:46:29;;;;;;;2.87;0.97;;;7.40;99.90;;;;;;4957512;28;20230;-83
2021/01/29 13:49:11;;;;;;;2.37;2.10;;;7.50;99.90;;;;;;4959501;28;20200;-90
2021/01/29 13:51:37;;;;;;;3.03;1.63;;;7.50;99.90;;;;;;4978643;28;20198;-91
2021/01/29 13:54:03;;;;;;;2.77;1.83;;;7.50;99.90;;;;;;4960852;28;20212;-91
2021/01/29 13:56:42;;;;;;;3.03;0.87;;;7.50;99.90;;;;;;4960770;28;20225;-89
2021/01/29 13:59:26;;;;;;;6.60;3.00;;;7.50;99.90;;;;;;4960883;28;20331;-88
2021/01/29 14:02:24;;;;;;;0.57;0.57;;;7.50;99.90;;;;;;4962721;28;20220;-90
2021/01/29 14:04:59;;;;;;;1.27;1.17;;;7.50;99.90;;;;;;4960155;28;20299;-91
2021/01/29 14:07:25;;;;;;;5.97;3.03;;;7.50;99.90;;;;;;4960700;28;20216;-88
2021/01/29 14:09:51;;;;;;;1.73;1.57;;;7.50;99.90;;;;;;4961375;28;20257;-88